createdAt,value
2023-04-15T00:02:00.705Z,4.20
2023-04-15T00:04:31.745Z,5.20
2023-04-15T00:07:03.070Z,5.20
2023-04-15T00:09:31.730Z,5.60
2023-04-15T00:12:00.734Z,5.00
2023-04-15T00:14:29.400Z,5.80
2023-04-15T00:16:58.604Z,3.80
2023-04-15T00:19:27.426Z,2.60
2023-04-15T00:21:56.722Z,4.60
2023-04-15T00:24:26.756Z,2.40
2023-04-15T00:26:55.629Z,3.00
2023-04-15T00:29:24.882Z,2.20
2023-04-15T00:31:53.821Z,1.00
2023-04-15T00:34:22.662Z,2.20
2023-04-15T00:36:52.592Z,1.00
2023-04-15T00:39:22.834Z,2.00
2023-04-15T00:41:54.369Z,2.00
2023-04-15T00:44:23.199Z,1.00
2023-04-15T00:46:53.227Z,2.00
2023-04-15T00:49:22.366Z,1.80
2023-04-15T00:51:51.497Z,2.20
2023-04-15T00:54:20.394Z,1.20
2023-04-15T00:56:49.384Z,1.00
2023-04-15T00:59:20.017Z,2.40
2023-04-15T01:01:49.330Z,1.00
2023-04-15T01:04:18.181Z,2.60
2023-04-15T01:06:47.314Z,2.00
2023-04-15T01:09:16.422Z,1.40
2023-04-15T01:11:45.930Z,1.80
2023-04-15T01:14:15.139Z,1.00
2023-04-15T01:16:45.749Z,1.80
2023-04-15T01:19:18.028Z,1.40
2023-04-15T01:21:47.128Z,1.00
2023-04-15T01:24:20.072Z,2.00
2023-04-15T01:26:51.120Z,3.00
2023-04-15T01:29:20.010Z,1.00
2023-04-15T01:31:53.389Z,1.00
2023-04-15T01:34:40.462Z,1.00
2023-04-15T01:37:28.552Z,1.40
2023-04-15T01:39:58.184Z,1.00
2023-04-15T01:42:28.866Z,0.40
2023-04-15T01:44:58.717Z,0.60
2023-04-15T01:47:29.133Z,1.20
2023-04-15T01:49:59.218Z,1.80
2023-04-15T01:52:29.555Z,1.00
2023-04-15T01:55:00.078Z,1.40
2023-04-15T01:57:31.722Z,1.00
2023-04-15T02:00:01.547Z,1.00
2023-04-15T02:02:32.032Z,1.00
2023-04-15T02:05:02.298Z,0.80
2023-04-15T02:07:33.367Z,1.00
2023-04-15T02:10:05.910Z,1.00
2023-04-15T02:12:40.685Z,0.00
2023-04-15T02:15:11.344Z,0.00
2023-04-15T02:17:45.832Z,1.00
2023-04-15T02:20:18.801Z,0.40
2023-04-15T02:22:49.511Z,0.40
2023-04-15T02:25:20.350Z,1.20
2023-04-15T02:27:52.291Z,2.00
2023-04-15T02:30:24.019Z,1.00
2023-04-15T02:32:54.195Z,0.80
2023-04-15T02:35:27.910Z,0.00
2023-04-15T02:37:59.137Z,1.00
2023-04-15T02:40:29.289Z,0.40
2023-04-15T02:43:01.162Z,0.60
2023-04-15T02:45:31.888Z,0.80
2023-04-15T02:48:06.647Z,0.20
2023-04-15T02:50:37.921Z,0.00
2023-04-15T02:53:08.377Z,1.00
2023-04-15T02:55:39.284Z,1.00
2023-04-15T02:58:11.041Z,0.60
2023-04-15T03:00:40.803Z,0.00
2023-04-15T03:03:11.202Z,0.00
2023-04-15T03:05:41.069Z,0.60
2023-04-15T03:08:11.459Z,1.00
2023-04-15T03:10:41.303Z,1.00
2023-04-15T03:13:12.721Z,0.60
2023-04-15T03:15:43.331Z,2.40
2023-04-15T03:18:13.732Z,2.60
2023-04-15T03:20:44.315Z,1.00
2023-04-15T03:23:14.590Z,1.20
2023-04-15T03:25:45.955Z,1.60
2023-04-15T03:28:18.139Z,2.00
2023-04-15T03:30:48.251Z,0.60
2023-04-15T03:33:18.603Z,1.00
2023-04-15T03:35:48.659Z,0.00
2023-04-15T03:38:18.822Z,1.00
2023-04-15T03:40:48.700Z,0.00
2023-04-15T03:43:20.292Z,1.80
2023-04-15T03:45:50.381Z,0.40
2023-04-15T03:48:21.253Z,0.00
2023-04-15T03:50:51.084Z,0.40
2023-04-15T03:53:22.684Z,0.60
2023-04-15T03:55:52.574Z,1.00
2023-04-15T03:58:24.369Z,1.20
2023-04-15T04:00:54.937Z,0.40
2023-04-15T04:03:25.422Z,1.00
2023-04-15T04:05:55.479Z,1.00
2023-04-15T04:08:25.774Z,0.60
2023-04-15T04:10:56.198Z,0.00
2023-04-15T04:13:27.829Z,0.00
2023-04-15T04:15:58.223Z,1.00
2023-04-15T04:18:28.738Z,0.40
2023-04-15T04:20:58.681Z,1.00
2023-04-15T04:23:28.951Z,1.00
2023-04-15T04:25:58.875Z,0.40
2023-04-15T04:28:30.496Z,1.00
2023-04-15T04:31:00.639Z,0.80
2023-04-15T04:33:30.994Z,2.80
2023-04-15T04:36:00.941Z,1.00
2023-04-15T04:38:31.155Z,0.00
2023-04-15T04:41:01.721Z,1.00
2023-04-15T04:43:33.446Z,0.20
2023-04-15T04:46:03.357Z,2.00
2023-04-15T04:48:33.626Z,1.00
2023-04-15T04:51:03.693Z,1.40
2023-04-15T04:53:33.929Z,1.60
2023-04-15T04:56:03.865Z,1.80
2023-04-15T04:58:35.619Z,1.00
2023-04-15T05:01:05.849Z,5.00
2023-04-15T05:03:37.038Z,43.33
2023-04-15T05:06:08.893Z,0.00
2023-04-15T05:08:40.331Z,2.80
2023-04-15T05:11:10.395Z,0.40
2023-04-15T05:13:42.263Z,1.20
2023-04-15T05:16:12.473Z,0.60
2023-04-15T05:18:42.684Z,2.00
2023-04-15T05:21:12.830Z,2.40
2023-04-15T05:23:42.956Z,1.20
2023-04-15T05:26:12.787Z,2.00
2023-04-15T05:28:44.300Z,1.80
2023-04-15T05:31:14.627Z,1.00
2023-04-15T05:33:45.379Z,0.80
2023-04-15T05:36:15.266Z,1.80
2023-04-15T05:38:45.571Z,1.00
2023-04-15T05:41:18.370Z,2.00
2023-04-15T05:43:51.470Z,1.00
2023-04-15T05:46:21.506Z,3.00
2023-04-15T05:48:51.814Z,1.60
2023-04-15T05:51:21.855Z,3.00
2023-04-15T05:53:52.023Z,0.60
2023-04-15T05:56:22.256Z,2.60
2023-04-15T05:58:54.064Z,20.60
2023-04-15T06:01:24.200Z,1.00
2023-04-15T06:03:54.693Z,2.00
2023-04-15T06:06:25.356Z,2.00
2023-04-15T06:08:55.940Z,1.40
2023-04-15T06:11:26.771Z,10.80
2023-04-15T06:13:58.313Z,67.33
2023-04-15T06:16:29.315Z,8.00
2023-04-15T06:19:01.282Z,2.80
2023-04-15T06:21:31.612Z,3.00
2023-04-15T06:24:03.056Z,1.40
2023-04-15T06:26:32.851Z,1.00
2023-04-15T06:29:04.554Z,1.00
2023-04-15T06:31:34.486Z,2.60
2023-04-15T06:34:05.350Z,1.00
2023-04-15T06:36:35.624Z,1.00
2023-04-15T06:39:05.791Z,1.20
2023-04-15T06:41:36.041Z,0.00
2023-04-15T06:44:07.722Z,1.00
2023-04-15T06:46:37.676Z,2.40
2023-04-15T06:49:08.557Z,2.80
2023-04-15T06:51:38.954Z,0.60
2023-04-15T06:54:08.972Z,0.80
2023-04-15T06:56:39.056Z,14.40
2023-04-15T06:59:10.664Z,3.20
2023-04-15T07:01:41.025Z,1.00
2023-04-15T07:04:12.709Z,1.00
2023-04-15T07:06:42.991Z,0.00
2023-04-15T07:09:13.609Z,0.00
2023-04-15T07:11:43.569Z,0.00
2023-04-15T07:14:15.100Z,0.20
2023-04-15T07:16:44.952Z,0.00
2023-04-15T07:19:15.741Z,1.00
2023-04-15T07:21:45.794Z,1.00
2023-04-15T07:24:19.727Z,0.00
2023-04-15T07:26:52.553Z,1.00
2023-04-15T07:29:24.513Z,0.00
2023-04-15T07:31:54.627Z,0.00
2023-04-15T07:34:25.192Z,0.00
2023-04-15T07:36:55.043Z,10.00
2023-04-15T07:39:25.208Z,1.20
2023-04-15T07:41:54.931Z,0.20
2023-04-15T07:44:26.919Z,0.00
2023-04-15T07:46:56.922Z,0.00
2023-04-15T07:49:27.213Z,0.00
2023-04-15T07:51:57.880Z,0.00
2023-04-15T07:54:28.618Z,0.00
2023-04-15T07:56:59.132Z,0.00
2023-04-15T07:59:33.506Z,1.00
2023-04-15T08:02:04.490Z,1.00
2023-04-15T08:04:35.388Z,11.20
2023-04-15T08:07:06.530Z,1.80
2023-04-15T08:09:37.097Z,4.80
2023-04-15T08:12:09.500Z,0.80
2023-04-15T08:14:41.282Z,2.00
2023-04-15T08:17:11.195Z,0.00
2023-04-15T08:19:42.530Z,4.20
2023-04-15T08:22:17.884Z,4.20
2023-04-15T08:24:48.961Z,1.80
2023-04-15T08:27:19.011Z,8.80
2023-04-15T08:29:50.750Z,6.00
2023-04-15T08:32:21.381Z,3.60
2023-04-15T08:34:51.972Z,3.00
2023-04-15T08:37:23.096Z,2.20
2023-04-15T08:39:53.377Z,3.00
2023-04-15T08:42:29.297Z,2.20
2023-04-15T08:45:02.485Z,0.80
2023-04-15T08:47:32.967Z,2.00
2023-04-15T08:50:05.570Z,1.00
2023-04-15T08:52:35.702Z,2.00
2023-04-15T08:55:29.176Z,1.40
2023-04-15T08:57:59.125Z,1.00
2023-04-15T09:00:30.930Z,1.00
2023-04-15T09:03:01.332Z,0.80
2023-04-15T09:05:34.591Z,0.20
2023-04-15T09:08:05.711Z,0.20
2023-04-15T09:10:36.492Z,0.40
2023-04-15T09:13:07.033Z,3.00
2023-04-15T09:15:41.623Z,1.00
2023-04-15T09:18:13.815Z,1.60
2023-04-15T09:20:44.295Z,2.00
2023-04-15T09:23:15.691Z,3.00
2023-04-15T09:25:46.749Z,1.80
2023-04-15T09:28:16.661Z,3.60
2023-04-15T09:30:49.812Z,0.40
2023-04-15T09:33:20.717Z,0.00
2023-04-15T09:36:01.539Z,0.80
2023-04-15T09:38:31.859Z,0.00
2023-04-15T09:41:02.700Z,0.40
2023-04-15T09:43:40.528Z,8.40
2023-04-15T09:46:12.573Z,5.00
2023-04-15T09:48:42.650Z,1.00
2023-04-15T09:51:13.148Z,1.40
2023-04-15T09:53:44.280Z,2.80
2023-04-15T09:56:15.400Z,1.20
2023-04-15T09:58:46.835Z,0.60
2023-04-15T10:01:18.632Z,1.00
2023-04-15T10:03:49.225Z,0.20
2023-04-15T10:06:19.894Z,0.40
2023-04-15T10:08:49.989Z,1.00
2023-04-15T10:11:21.242Z,1.00
2023-04-15T10:13:52.223Z,0.20
2023-04-15T10:16:28.594Z,1.00
2023-04-15T10:19:02.836Z,1.40
2023-04-15T10:21:34.212Z,0.00
2023-04-15T10:24:05.140Z,0.00
2023-04-15T10:26:36.511Z,1.00
2023-04-15T10:29:06.936Z,0.00
2023-04-15T10:31:39.831Z,1.00
2023-04-15T10:34:10.926Z,2.80
2023-04-15T10:36:41.321Z,1.00
2023-04-15T10:39:45.098Z,1.00
2023-04-15T10:42:17.432Z,1.60
2023-04-15T10:44:51.930Z,0.00
2023-04-15T10:47:24.767Z,1.00
2023-04-15T10:50:00.496Z,1.40
2023-04-15T10:52:31.340Z,0.80
2023-04-15T10:55:05.540Z,1.00
2023-04-15T10:57:40.975Z,1.20
2023-04-15T11:00:15.701Z,1.00
2023-04-15T11:02:49.182Z,3.80
2023-04-15T11:05:20.088Z,2.00
2023-04-15T11:07:53.223Z,3.60
2023-04-15T11:10:55.003Z,2.00
2023-04-15T11:13:30.614Z,1.00
2023-04-15T11:16:02.778Z,2.00
2023-04-15T11:18:35.868Z,2.00
2023-04-15T11:21:08.235Z,5.00
2023-04-15T11:23:41.306Z,2.00
2023-04-15T11:26:12.714Z,3.00
2023-04-15T11:28:44.914Z,17.00
2023-04-15T11:31:17.915Z,4.40
2023-04-15T11:33:56.688Z,1.20
2023-04-15T11:36:30.277Z,2.00
2023-04-15T11:39:01.228Z,2.00
2023-04-15T11:41:31.774Z,1.00
2023-04-15T11:44:02.352Z,2.00
2023-04-15T11:46:33.262Z,2.00
2023-04-15T11:49:05.225Z,1.80
2023-04-15T11:51:35.812Z,12.20
2023-04-15T11:54:05.186Z,5.20
2023-04-15T11:56:34.216Z,3.00
2023-04-15T11:59:03.493Z,2.40
2023-04-15T12:01:36.538Z,2.00
2023-04-15T12:04:12.941Z,2.20
2023-04-15T12:06:41.998Z,2.00
2023-04-15T12:09:13.324Z,1.00
2023-04-15T12:11:47.522Z,1.00
2023-04-15T12:14:26.878Z,1.80
2023-04-15T12:16:58.497Z,1.20
2023-04-15T12:19:30.227Z,5.00
2023-04-15T12:22:02.434Z,0.80
2023-04-15T12:24:33.884Z,1.60
2023-04-15T12:27:06.992Z,2.00
2023-04-15T12:29:38.845Z,1.20
2023-04-15T12:32:09.581Z,7.00
2023-04-15T12:34:41.531Z,2.00
2023-04-15T12:37:12.035Z,1.60
2023-04-15T12:39:43.329Z,3.60
2023-04-15T12:42:13.079Z,2.60
2023-04-15T12:44:42.496Z,0.80
2023-04-15T12:47:12.112Z,0.00
2023-04-15T12:49:42.937Z,0.00
2023-04-15T12:52:12.138Z,0.80
2023-04-15T12:54:41.246Z,0.00
2023-04-15T12:57:09.930Z,0.40
2023-04-15T12:59:38.894Z,0.20
2023-04-15T13:02:08.257Z,1.00
2023-04-15T13:04:37.547Z,0.00
2023-04-15T13:07:07.577Z,0.60
2023-04-15T13:09:36.704Z,2.00
2023-04-15T13:12:05.965Z,1.80
2023-04-15T13:14:35.739Z,5.00
2023-04-15T13:17:08.994Z,9.20
2023-04-15T13:19:38.207Z,5.80
2023-04-15T13:22:08.945Z,2.20
2023-04-15T13:24:39.281Z,0.60
2023-04-15T13:27:08.455Z,0.00
2023-04-15T13:29:37.939Z,1.00
2023-04-15T13:32:07.036Z,0.60
2023-04-15T13:34:36.064Z,1.00
2023-04-15T13:37:09.172Z,2.00
2023-04-15T13:39:38.227Z,2.40
2023-04-15T13:42:07.890Z,1.00
2023-04-15T13:44:36.809Z,1.80
2023-04-15T13:47:06.125Z,1.60
2023-04-15T13:49:35.068Z,2.20
2023-04-15T13:52:03.966Z,1.80
2023-04-15T13:54:37.772Z,2.40
2023-04-15T13:57:06.899Z,3.00
2023-04-15T13:59:36.170Z,4.40
2023-04-15T14:02:05.002Z,1.20
2023-04-15T14:04:34.427Z,1.60
2023-04-15T14:07:05.197Z,2.00
2023-04-15T14:09:36.626Z,1.60
2023-04-15T14:12:06.135Z,2.00
2023-04-15T14:14:35.147Z,1.20
2023-04-15T14:17:04.242Z,2.20
2023-04-15T14:19:34.197Z,2.20
2023-04-15T14:22:03.531Z,2.00
2023-04-15T14:24:32.688Z,2.00
2023-04-15T14:27:02.873Z,1.60
2023-04-15T14:29:32.044Z,33.50
2023-04-15T14:32:04.455Z,8.80
2023-04-15T14:34:41.902Z,2.00
2023-04-15T14:37:10.764Z,2.60
2023-04-15T14:39:39.841Z,25.00
2023-04-15T14:42:10.194Z,7.80
2023-04-15T14:44:39.250Z,5.00
2023-04-15T14:47:07.994Z,5.00
2023-04-15T14:49:36.954Z,3.00
2023-04-15T14:52:05.795Z,3.60
2023-04-15T14:54:34.826Z,28.00
2023-04-15T14:57:03.456Z,4.60
2023-04-15T14:59:33.843Z,3.00
2023-04-15T15:02:02.632Z,2.00
2023-04-15T15:04:33.492Z,2.00
2023-04-15T15:07:02.624Z,1.00
2023-04-15T15:09:32.880Z,1.00
2023-04-15T15:12:03.254Z,3.00
2023-04-15T15:14:33.569Z,2.80
2023-04-15T15:17:02.317Z,1.60
2023-04-15T15:19:31.370Z,2.00
2023-04-15T15:22:00.052Z,3.40
2023-04-15T15:24:29.067Z,2.00
2023-04-15T15:26:58.253Z,2.00
2023-04-15T15:29:27.408Z,2.00
2023-04-15T15:31:57.981Z,2.20
2023-04-15T15:34:27.170Z,13.20
2023-04-15T15:36:57.281Z,7.00
2023-04-15T15:39:26.252Z,31.20
2023-04-15T15:41:55.020Z,2.00
2023-04-15T15:44:24.432Z,2.00
2023-04-15T15:46:53.320Z,4.00
2023-04-15T15:49:25.352Z,4.40
2023-04-15T15:51:54.002Z,3.00
2023-04-15T15:54:23.006Z,6.40
2023-04-15T15:56:51.751Z,4.80
2023-04-15T15:59:20.801Z,2.60
2023-04-15T16:01:50.562Z,4.00
2023-04-15T16:04:19.888Z,2.00
2023-04-15T16:06:50.033Z,3.80
2023-04-15T16:09:19.165Z,3.20
2023-04-15T16:11:47.806Z,5.00
2023-04-15T16:14:16.795Z,4.20
2023-04-15T16:16:46.085Z,3.00
2023-04-15T16:19:15.322Z,5.40
2023-04-15T16:21:44.655Z,14.20
2023-04-15T16:24:15.358Z,5.80
2023-04-15T16:26:43.994Z,5.80
2023-04-15T16:29:12.857Z,11.60
2023-04-15T16:31:41.713Z,15.80
2023-04-15T16:34:11.269Z,8.80
2023-04-15T16:36:40.619Z,7.20
2023-04-15T16:39:09.528Z,4.00
2023-04-15T16:41:39.535Z,5.80
2023-04-15T16:44:09.169Z,4.80
2023-04-15T16:46:40.321Z,5.80
2023-04-15T16:49:10.101Z,5.60
2023-04-15T16:51:38.783Z,7.20
2023-04-15T16:54:07.753Z,5.80
2023-04-15T16:56:36.660Z,4.60
2023-04-15T16:59:07.077Z,8.40
2023-04-15T17:01:36.122Z,8.40
2023-04-15T17:04:05.819Z,20.60
2023-04-15T17:06:34.636Z,10.40
2023-04-15T17:09:03.982Z,9.20
2023-04-15T17:11:33.262Z,9.60
2023-04-15T17:14:03.848Z,11.00
2023-04-15T17:16:34.307Z,11.60
2023-04-15T17:19:03.607Z,10.00
2023-04-15T17:21:39.543Z,51.00
2023-04-15T17:24:10.181Z,11.40
2023-04-15T17:26:47.147Z,24.80
2023-04-15T17:29:16.355Z,15.60
2023-04-15T17:31:50.801Z,12.00
2023-04-15T17:34:49.521Z,52.00
2023-04-15T17:37:39.296Z,24.60
2023-04-15T17:40:28.350Z,14.40
2023-04-15T17:43:16.895Z,13.60
2023-04-15T17:46:07.484Z,16.00
2023-04-15T17:48:57.598Z,20.20
2023-04-15T17:51:46.719Z,19.20
2023-04-15T17:54:35.705Z,16.60
2023-04-15T17:57:25.277Z,17.60
2023-04-15T18:00:14.965Z,25.80
2023-04-15T18:03:03.930Z,15.60
2023-04-15T18:05:54.680Z,15.00
2023-04-15T18:08:43.597Z,10.00
2023-04-15T18:11:33.754Z,12.40
2023-04-15T18:14:33.576Z,13.60
2023-04-15T18:17:23.216Z,14.60
2023-04-15T18:20:12.900Z,16.60
2023-04-15T18:22:43.696Z,68.75
2023-04-15T18:25:12.683Z,38.50
2023-04-15T18:27:41.490Z,28.50
2023-04-15T18:30:12.094Z,16.80
2023-04-15T18:32:41.120Z,21.80
2023-04-15T18:35:10.861Z,17.60
2023-04-15T18:37:39.717Z,17.00
2023-04-15T18:40:11.172Z,15.20
2023-04-15T18:42:39.767Z,17.40
2023-04-15T18:45:09.703Z,25.20
2023-04-15T18:47:38.589Z,19.80
2023-04-15T18:50:08.949Z,15.60
2023-04-15T18:52:37.734Z,13.80
2023-04-15T18:55:07.519Z,19.60
2023-04-15T18:57:42.584Z,2.00
2023-04-15T19:00:15.997Z,16.80
2023-04-15T19:02:45.070Z,18.60
2023-04-15T19:05:14.194Z,19.20
2023-04-15T19:07:42.966Z,20.40
2023-04-15T19:10:12.331Z,18.00
2023-04-15T19:12:42.550Z,17.40
2023-04-15T19:15:12.132Z,20.20
2023-04-15T19:17:41.085Z,19.00
2023-04-15T19:20:10.856Z,16.80
2023-04-15T19:22:39.794Z,17.20
2023-04-15T19:25:09.240Z,16.80
2023-04-15T19:27:39.577Z,45.25
2023-04-15T19:30:10.969Z,28.00
2023-04-15T19:32:39.953Z,18.40
2023-04-15T19:35:11.411Z,16.00
2023-04-15T19:37:40.770Z,12.00
2023-04-15T19:40:10.704Z,10.60
2023-04-15T19:42:39.476Z,12.40
2023-04-15T19:45:10.735Z,26.60
2023-04-15T19:47:39.772Z,41.50
2023-04-15T19:50:11.956Z,15.00
2023-04-15T19:52:41.046Z,14.20
2023-04-15T19:55:11.097Z,14.60
2023-04-15T19:57:39.855Z,14.80
2023-04-15T20:00:11.541Z,16.40
2023-04-15T20:02:40.323Z,15.80
2023-04-15T20:05:11.038Z,11.00
2023-04-15T20:07:42.514Z,15.60
2023-04-15T20:10:13.259Z,11.20
2023-04-15T20:12:51.476Z,14.80
2023-04-15T20:15:24.140Z,14.20
2023-04-15T20:17:52.991Z,13.00
2023-04-15T20:20:22.351Z,14.00
2023-04-15T20:22:52.774Z,42.50
2023-04-15T20:25:21.798Z,39.00
2023-04-15T20:27:50.856Z,18.40
2023-04-15T20:30:20.143Z,12.20
2023-04-15T20:32:50.258Z,11.00
2023-04-15T20:35:19.887Z,10.00
2023-04-15T20:37:50.135Z,9.00
2023-04-15T20:40:19.272Z,7.80
2023-04-15T20:42:48.159Z,8.60
2023-04-15T20:45:17.497Z,9.00
2023-04-15T20:47:46.370Z,10.00
2023-04-15T20:50:16.753Z,8.00
2023-04-15T20:52:45.337Z,7.60
2023-04-15T20:55:14.410Z,7.20
2023-04-15T20:57:43.092Z,9.40
2023-04-15T21:00:13.051Z,7.80
2023-04-15T21:02:41.867Z,8.40
2023-04-15T21:05:11.086Z,13.60
2023-04-15T21:07:41.468Z,9.20
2023-04-15T21:10:11.129Z,7.60
2023-04-15T21:12:41.150Z,9.40
2023-04-15T21:15:11.108Z,8.60
2023-04-15T21:17:39.855Z,4.60
2023-04-15T21:20:09.921Z,8.40
2023-04-15T21:22:40.503Z,4.40
2023-04-15T21:25:10.469Z,5.80
2023-04-15T21:27:39.250Z,4.40
2023-04-15T21:30:09.121Z,4.00
2023-04-15T21:32:37.992Z,4.80
2023-04-15T21:35:08.291Z,5.00
2023-04-15T21:37:37.558Z,6.40
2023-04-15T21:40:09.819Z,4.00
2023-04-15T21:42:38.552Z,6.40
2023-04-15T21:45:08.324Z,5.00
2023-04-15T21:48:06.093Z,5.80
2023-04-15T21:50:25.991Z,9.80
2023-04-15T21:52:54.822Z,5.40
2023-04-15T21:55:25.454Z,4.80
2023-04-15T21:57:54.077Z,6.00
2023-04-15T22:00:23.250Z,4.20
2023-04-15T22:02:52.145Z,5.00
2023-04-15T22:05:21.462Z,6.60
2023-04-15T22:07:50.270Z,6.60
2023-04-15T22:10:19.666Z,5.40
2023-04-15T22:12:49.771Z,4.20
2023-04-15T22:15:18.662Z,7.80
2023-04-15T22:17:47.674Z,4.40
2023-04-15T22:20:17.180Z,8.00
2023-04-15T22:22:45.839Z,6.20
2023-04-15T22:25:16.093Z,7.80
2023-04-15T22:27:44.702Z,5.80
2023-04-15T22:30:15.252Z,5.40
2023-04-15T22:32:44.063Z,10.20
2023-04-15T22:35:13.020Z,6.00
2023-04-15T22:37:41.595Z,6.20
2023-04-15T22:40:11.473Z,9.00
2023-04-15T22:42:40.100Z,10.60
2023-04-15T22:45:10.197Z,9.20
2023-04-15T22:47:40.396Z,8.20
2023-04-15T22:50:10.350Z,13.20
2023-04-15T22:52:39.201Z,13.80
2023-04-15T22:55:09.380Z,14.20
2023-04-15T22:57:37.934Z,13.80
2023-04-15T23:00:08.884Z,13.00
2023-04-15T23:02:37.793Z,14.00
2023-04-15T23:05:13.181Z,11.60
2023-04-15T23:07:42.127Z,16.00
2023-04-15T23:10:11.432Z,15.20
2023-04-15T23:12:40.072Z,16.80
2023-04-15T23:15:10.099Z,14.40
2023-04-15T23:17:38.705Z,14.00
2023-04-15T23:20:09.881Z,14.20
2023-04-15T23:22:38.662Z,12.40
2023-04-15T23:25:08.391Z,13.40
2023-04-15T23:27:37.223Z,12.40
2023-04-15T23:30:07.425Z,14.00
2023-04-15T23:32:36.045Z,13.60
2023-04-15T23:35:05.513Z,13.20
2023-04-15T23:37:35.658Z,15.20
2023-04-15T23:40:05.140Z,15.80
2023-04-15T23:42:33.870Z,13.40
2023-04-15T23:45:02.704Z,17.40
2023-04-15T23:47:32.182Z,23.40
2023-04-15T23:50:01.626Z,15.80
2023-04-15T23:52:30.376Z,18.40
2023-04-15T23:55:01.401Z,20.60
2023-04-15T23:57:30.177Z,19.20
2023-04-15T23:59:59.181Z,20.60
